Conway, Washington
Current Conditions -  °F | °C
As of 4:56 AM on Friday 31 Oct 2014 (Local Time) from KNUW Reporting Station
Light Rain Light Rain  
Wind Chill: 53°   Ceiling: 4000
Heat Index: 53°   Visibility: 10mi
Dew Point: 50°   Wind: 0mph
Humidity: 89%   Direction: NA
Pressure: 29.72"   Gusts: NA
Location:  48.34°N, 122.35°W
Report Text: KNUW 311156Z 00000KT 10SM -RA SCT025 BKN040 OVC060 12/10 A2972 RMK AO2 SLP067 P0001 60009 70019 T01170100 10128 20117 58017 $
Loading
Personal Weather Stations






























Interactive Weather Map New forecast layout! Learn more

10-Day Weather Forecast

Advertisements
Track Severe Weather on mobile